sensor_id;sensor_type;location;lat;lon;timestamp;P1;durP1;ratioP1;P2;durP2;ratioP2
49320;SDS011;35817;44.498;0.166;2022-11-12T00:02:18;10.43;;;7.20;;
49320;SDS011;35817;44.498;0.166;2022-11-12T00:04:44;11.70;;;8.32;;
49320;SDS011;35817;44.498;0.166;2022-11-12T00:07:13;12.30;;;9.15;;
49320;SDS011;35817;44.498;0.166;2022-11-12T00:09:39;9.75;;;7.80;;
49320;SDS011;35817;44.498;0.166;2022-11-12T00:12:05;8.23;;;6.88;;
49320;SDS011;35817;44.498;0.166;2022-11-12T00:14:31;14.60;;;8.00;;
49320;SDS011;35817;44.498;0.166;2022-11-12T00:16:57;8.50;;;7.70;;
49320;SDS011;35817;44.498;0.166;2022-11-12T00:19:23;10.30;;;7.20;;
49320;SDS011;35817;44.498;0.166;2022-11-12T00:21:49;7.90;;;6.07;;
49320;SDS011;35817;44.498;0.166;2022-11-12T00:24:15;7.70;;;6.18;;
49320;SDS011;35817;44.498;0.166;2022-11-12T00:26:41;5.85;;;5.13;;
49320;SDS011;35817;44.498;0.166;2022-11-12T00:29:07;17.63;;;5.55;;
49320;SDS011;35817;44.498;0.166;2022-11-12T00:31:33;9.25;;;4.95;;
49320;SDS011;35817;44.498;0.166;2022-11-12T00:33:58;5.03;;;4.28;;
49320;SDS011;35817;44.498;0.166;2022-11-12T00:36:25;7.18;;;5.30;;
49320;SDS011;35817;44.498;0.166;2022-11-12T00:38:56;5.63;;;4.32;;
49320;SDS011;35817;44.498;0.166;2022-11-12T00:41:22;7.55;;;4.47;;
49320;SDS011;35817;44.498;0.166;2022-11-12T00:43:48;9.90;;;5.30;;
49320;SDS011;35817;44.498;0.166;2022-11-12T00:46:14;6.03;;;3.65;;
49320;SDS011;35817;44.498;0.166;2022-11-12T00:48:40;8.07;;;4.10;;
49320;SDS011;35817;44.498;0.166;2022-11-12T00:51:06;9.68;;;3.90;;
49320;SDS011;35817;44.498;0.166;2022-11-12T00:53:32;5.68;;;4.90;;
49320;SDS011;35817;44.498;0.166;2022-11-12T00:55:59;12.13;;;5.07;;
49320;SDS011;35817;44.498;0.166;2022-11-12T00:58:27;10.63;;;4.00;;
49320;SDS011;35817;44.498;0.166;2022-11-12T01:00:56;8.82;;;4.32;;
49320;SDS011;35817;44.498;0.166;2022-11-12T01:03:22;7.50;;;3.85;;
49320;SDS011;35817;44.498;0.166;2022-11-12T01:05:51;6.10;;;4.35;;
49320;SDS011;35817;44.498;0.166;2022-11-12T01:08:17;5.78;;;3.97;;
49320;SDS011;35817;44.498;0.166;2022-11-12T01:10:43;6.45;;;4.78;;
49320;SDS011;35817;44.498;0.166;2022-11-12T01:13:09;7.25;;;3.92;;
49320;SDS011;35817;44.498;0.166;2022-11-12T01:15:38;6.38;;;4.63;;
49320;SDS011;35817;44.498;0.166;2022-11-12T01:18:05;5.97;;;3.92;;
49320;SDS011;35817;44.498;0.166;2022-11-12T01:20:31;7.45;;;4.50;;
49320;SDS011;35817;44.498;0.166;2022-11-12T01:22:57;6.53;;;4.75;;
49320;SDS011;35817;44.498;0.166;2022-11-12T01:25:22;6.88;;;4.97;;
49320;SDS011;35817;44.498;0.166;2022-11-12T01:27:48;7.32;;;3.85;;
49320;SDS011;35817;44.498;0.166;2022-11-12T01:30:14;7.45;;;4.20;;
49320;SDS011;35817;44.498;0.166;2022-11-12T01:32:40;11.52;;;4.68;;
49320;SDS011;35817;44.498;0.166;2022-11-12T01:35:06;7.75;;;4.50;;
49320;SDS011;35817;44.498;0.166;2022-11-12T01:37:32;12.40;;;5.20;;
49320;SDS011;35817;44.498;0.166;2022-11-12T01:40:00;5.53;;;3.67;;
49320;SDS011;35817;44.498;0.166;2022-11-12T01:42:28;5.88;;;3.63;;
49320;SDS011;35817;44.498;0.166;2022-11-12T01:44:56;6.80;;;3.97;;
49320;SDS011;35817;44.498;0.166;2022-11-12T01:47:23;6.35;;;4.28;;
49320;SDS011;35817;44.498;0.166;2022-11-12T01:52:34;6.90;;;4.20;;
49320;SDS011;35817;44.498;0.166;2022-11-12T01:55:08;4.68;;;4.05;;
49320;SDS011;35817;44.498;0.166;2022-11-12T01:57:44;8.10;;;4.97;;
49320;SDS011;35817;44.498;0.166;2022-11-12T02:00:14;8.98;;;3.75;;
49320;SDS011;35817;44.498;0.166;2022-11-12T02:02:41;7.38;;;3.65;;
49320;SDS011;35817;44.498;0.166;2022-11-12T02:05:10;5.78;;;3.42;;
49320;SDS011;35817;44.498;0.166;2022-11-12T02:07:38;7.97;;;3.72;;
49320;SDS011;35817;44.498;0.166;2022-11-12T02:10:06;6.75;;;3.85;;
49320;SDS011;35817;44.498;0.166;2022-11-12T02:12:36;12.52;;;4.18;;
49320;SDS011;35817;44.498;0.166;2022-11-12T02:15:21;5.72;;;3.40;;
49320;SDS011;35817;44.498;0.166;2022-11-12T02:17:46;6.60;;;5.30;;
49320;SDS011;35817;44.498;0.166;2022-11-12T02:20:13;11.77;;;4.25;;
49320;SDS011;35817;44.498;0.166;2022-11-12T02:22:39;6.15;;;4.90;;
49320;SDS011;35817;44.498;0.166;2022-11-12T02:25:06;5.97;;;4.45;;
49320;SDS011;35817;44.498;0.166;2022-11-12T02:27:33;7.05;;;3.70;;
49320;SDS011;35817;44.498;0.166;2022-11-12T02:29:59;4.88;;;4.22;;
49320;SDS011;35817;44.498;0.166;2022-11-12T02:32:25;7.72;;;4.60;;
49320;SDS011;35817;44.498;0.166;2022-11-12T02:34:54;10.75;;;4.40;;
49320;SDS011;35817;44.498;0.166;2022-11-12T02:37:20;8.32;;;3.47;;
49320;SDS011;35817;44.498;0.166;2022-11-12T02:39:46;8.02;;;4.38;;
49320;SDS011;35817;44.498;0.166;2022-11-12T02:42:11;6.05;;;3.63;;
49320;SDS011;35817;44.498;0.166;2022-11-12T02:44:37;13.45;;;4.47;;
49320;SDS011;35817;44.498;0.166;2022-11-12T02:47:04;7.72;;;4.57;;
49320;SDS011;35817;44.498;0.166;2022-11-12T02:49:30;6.63;;;4.18;;
49320;SDS011;35817;44.498;0.166;2022-11-12T02:51:55;6.93;;;3.53;;
49320;SDS011;35817;44.498;0.166;2022-11-12T02:54:21;10.68;;;3.63;;
49320;SDS011;35817;44.498;0.166;2022-11-12T02:56:50;6.28;;;4.15;;
49320;SDS011;35817;44.498;0.166;2022-11-12T02:59:16;5.82;;;3.42;;
49320;SDS011;35817;44.498;0.166;2022-11-12T03:01:42;4.47;;;3.17;;
49320;SDS011;35817;44.498;0.166;2022-11-12T03:04:08;5.07;;;3.92;;
49320;SDS011;35817;44.498;0.166;2022-11-12T03:06:34;6.20;;;3.35;;
49320;SDS011;35817;44.498;0.166;2022-11-12T03:09:00;4.35;;;3.38;;
49320;SDS011;35817;44.498;0.166;2022-11-12T03:11:26;5.03;;;3.67;;
49320;SDS011;35817;44.498;0.166;2022-11-12T03:13:52;8.48;;;4.35;;
49320;SDS011;35817;44.498;0.166;2022-11-12T03:16:17;5.85;;;3.17;;
49320;SDS011;35817;44.498;0.166;2022-11-12T03:18:43;6.25;;;4.10;;
49320;SDS011;35817;44.498;0.166;2022-11-12T03:21:09;5.85;;;3.40;;
49320;SDS011;35817;44.498;0.166;2022-11-12T03:23:35;6.30;;;2.90;;
49320;SDS011;35817;44.498;0.166;2022-11-12T03:26:02;8.20;;;3.80;;
49320;SDS011;35817;44.498;0.166;2022-11-12T03:28:29;6.72;;;2.67;;
49320;SDS011;35817;44.498;0.166;2022-11-12T03:30:56;5.03;;;2.30;;
49320;SDS011;35817;44.498;0.166;2022-11-12T03:33:23;6.78;;;4.35;;
49320;SDS011;35817;44.498;0.166;2022-11-12T03:35:49;9.32;;;3.65;;
49320;SDS011;35817;44.498;0.166;2022-11-12T03:38:15;9.23;;;3.55;;
49320;SDS011;35817;44.498;0.166;2022-11-12T03:40:41;4.22;;;3.08;;
49320;SDS011;35817;44.498;0.166;2022-11-12T03:43:07;9.15;;;4.13;;
49320;SDS011;35817;44.498;0.166;2022-11-12T03:45:36;5.05;;;3.80;;
49320;SDS011;35817;44.498;0.166;2022-11-12T03:48:02;7.45;;;3.97;;
49320;SDS011;35817;44.498;0.166;2022-11-12T03:50:28;8.93;;;5.50;;
49320;SDS011;35817;44.498;0.166;2022-11-12T03:52:55;5.93;;;2.60;;
49320;SDS011;35817;44.498;0.166;2022-11-12T03:55:23;7.30;;;3.50;;
49320;SDS011;35817;44.498;0.166;2022-11-12T03:57:51;9.07;;;3.05;;
49320;SDS011;35817;44.498;0.166;2022-11-12T04:00:18;5.00;;;2.42;;
49320;SDS011;35817;44.498;0.166;2022-11-12T04:02:44;4.38;;;3.97;;
49320;SDS011;35817;44.498;0.166;2022-11-12T04:05:10;4.72;;;3.15;;
49320;SDS011;35817;44.498;0.166;2022-11-12T04:08:00;4.10;;;2.65;;
49320;SDS011;35817;44.498;0.166;2022-11-12T04:10:49;7.35;;;5.78;;
49320;SDS011;35817;44.498;0.166;2022-11-12T04:13:15;5.55;;;3.47;;
49320;SDS011;35817;44.498;0.166;2022-11-12T04:15:55;6.13;;;3.25;;
49320;SDS011;35817;44.498;0.166;2022-11-12T04:18:48;7.05;;;3.75;;
49320;SDS011;35817;44.498;0.166;2022-11-12T04:21:49;7.30;;;3.90;;
49320;SDS011;35817;44.498;0.166;2022-11-12T04:24:22;4.97;;;2.83;;
49320;SDS011;35817;44.498;0.166;2022-11-12T04:27:09;6.93;;;4.03;;
49320;SDS011;35817;44.498;0.166;2022-11-12T04:32:22;6.80;;;4.15;;
49320;SDS011;35817;44.498;0.166;2022-11-12T04:34:49;6.07;;;2.83;;
49320;SDS011;35817;44.498;0.166;2022-11-12T04:37:15;9.88;;;2.33;;
49320;SDS011;35817;44.498;0.166;2022-11-12T04:39:42;8.20;;;3.97;;
49320;SDS011;35817;44.498;0.166;2022-11-12T04:42:08;7.63;;;3.80;;
49320;SDS011;35817;44.498;0.166;2022-11-12T04:44:53;6.32;;;4.32;;
49320;SDS011;35817;44.498;0.166;2022-11-12T04:47:30;8.10;;;4.95;;
49320;SDS011;35817;44.498;0.166;2022-11-12T04:49:58;8.32;;;5.30;;
49320;SDS011;35817;44.498;0.166;2022-11-12T04:52:25;7.93;;;5.32;;
49320;SDS011;35817;44.498;0.166;2022-11-12T04:54:52;7.07;;;4.10;;
49320;SDS011;35817;44.498;0.166;2022-11-12T04:57:19;7.72;;;4.80;;
49320;SDS011;35817;44.498;0.166;2022-11-12T04:59:46;11.48;;;5.03;;
49320;SDS011;35817;44.498;0.166;2022-11-12T05:02:12;9.30;;;6.10;;
49320;SDS011;35817;44.498;0.166;2022-11-12T05:04:39;7.60;;;5.00;;
49320;SDS011;35817;44.498;0.166;2022-11-12T05:07:05;7.47;;;4.45;;
49320;SDS011;35817;44.498;0.166;2022-11-12T05:09:31;11.63;;;4.18;;
49320;SDS011;35817;44.498;0.166;2022-11-12T05:11:57;9.32;;;4.00;;
49320;SDS011;35817;44.498;0.166;2022-11-12T05:14:23;7.85;;;5.47;;
49320;SDS011;35817;44.498;0.166;2022-11-12T05:16:49;9.65;;;5.05;;
49320;SDS011;35817;44.498;0.166;2022-11-12T05:19:16;8.45;;;6.22;;
49320;SDS011;35817;44.498;0.166;2022-11-12T05:21:42;11.32;;;6.72;;
49320;SDS011;35817;44.498;0.166;2022-11-12T05:24:26;11.38;;;6.53;;
49320;SDS011;35817;44.498;0.166;2022-11-12T05:26:52;8.55;;;5.93;;
49320;SDS011;35817;44.498;0.166;2022-11-12T05:29:18;7.47;;;5.28;;
49320;SDS011;35817;44.498;0.166;2022-11-12T05:31:44;8.75;;;6.57;;
49320;SDS011;35817;44.498;0.166;2022-11-12T05:34:10;9.93;;;5.70;;
49320;SDS011;35817;44.498;0.166;2022-11-12T05:36:37;10.55;;;5.88;;
49320;SDS011;35817;44.498;0.166;2022-11-12T05:39:03;9.48;;;6.22;;
49320;SDS011;35817;44.498;0.166;2022-11-12T05:41:29;8.57;;;6.88;;
49320;SDS011;35817;44.498;0.166;2022-11-12T05:43:55;9.15;;;5.55;;
49320;SDS011;35817;44.498;0.166;2022-11-12T05:46:24;10.00;;;6.63;;
49320;SDS011;35817;44.498;0.166;2022-11-12T05:48:50;8.77;;;5.88;;
49320;SDS011;35817;44.498;0.166;2022-11-12T05:51:16;6.82;;;4.90;;
49320;SDS011;35817;44.498;0.166;2022-11-12T05:53:42;9.07;;;6.18;;
49320;SDS011;35817;44.498;0.166;2022-11-12T05:56:08;11.25;;;6.35;;
49320;SDS011;35817;44.498;0.166;2022-11-12T05:58:35;7.93;;;6.28;;
49320;SDS011;35817;44.498;0.166;2022-11-12T06:01:01;7.90;;;4.60;;
49320;SDS011;35817;44.498;0.166;2022-11-12T06:03:28;13.65;;;6.22;;
49320;SDS011;35817;44.498;0.166;2022-11-12T06:05:54;11.00;;;6.38;;
49320;SDS011;35817;44.498;0.166;2022-11-12T06:08:20;11.32;;;6.32;;
49320;SDS011;35817;44.498;0.166;2022-11-12T06:10:52;10.57;;;6.40;;
49320;SDS011;35817;44.498;0.166;2022-11-12T06:13:20;11.40;;;7.18;;
49320;SDS011;35817;44.498;0.166;2022-11-12T06:15:47;13.43;;;7.28;;
49320;SDS011;35817;44.498;0.166;2022-11-12T06:18:13;8.70;;;6.18;;
49320;SDS011;35817;44.498;0.166;2022-11-12T06:20:39;7.80;;;5.78;;
49320;SDS011;35817;44.498;0.166;2022-11-12T06:23:05;7.25;;;5.72;;
49320;SDS011;35817;44.498;0.166;2022-11-12T06:25:31;8.57;;;4.55;;
49320;SDS011;35817;44.498;0.166;2022-11-12T06:27:57;16.98;;;9.20;;
49320;SDS011;35817;44.498;0.166;2022-11-12T06:30:22;10.00;;;7.15;;
49320;SDS011;35817;44.498;0.166;2022-11-12T06:32:49;7.60;;;5.18;;
49320;SDS011;35817;44.498;0.166;2022-11-12T06:35:16;7.82;;;6.60;;
49320;SDS011;35817;44.498;0.166;2022-11-12T06:37:46;12.05;;;6.15;;
49320;SDS011;35817;44.498;0.166;2022-11-12T06:40:12;9.65;;;5.07;;
49320;SDS011;35817;44.498;0.166;2022-11-12T06:42:38;7.97;;;6.35;;
49320;SDS011;35817;44.498;0.166;2022-11-12T06:45:04;9.07;;;5.70;;
49320;SDS011;35817;44.498;0.166;2022-11-12T06:47:31;10.55;;;6.80;;
49320;SDS011;35817;44.498;0.166;2022-11-12T06:49:56;10.13;;;7.22;;
49320;SDS011;35817;44.498;0.166;2022-11-12T06:52:22;14.65;;;7.82;;
49320;SDS011;35817;44.498;0.166;2022-11-12T06:54:48;11.60;;;7.30;;
49320;SDS011;35817;44.498;0.166;2022-11-12T06:57:14;11.35;;;8.85;;
49320;SDS011;35817;44.498;0.166;2022-11-12T06:59:40;18.30;;;11.77;;
49320;SDS011;35817;44.498;0.166;2022-11-12T07:02:06;18.05;;;9.23;;
49320;SDS011;35817;44.498;0.166;2022-11-12T07:04:35;13.20;;;9.90;;
49320;SDS011;35817;44.498;0.166;2022-11-12T07:07:01;13.98;;;9.77;;
49320;SDS011;35817;44.498;0.166;2022-11-12T07:09:27;15.60;;;8.23;;
49320;SDS011;35817;44.498;0.166;2022-11-12T07:11:53;15.13;;;9.93;;
49320;SDS011;35817;44.498;0.166;2022-11-12T07:14:19;11.50;;;9.43;;
49320;SDS011;35817;44.498;0.166;2022-11-12T07:16:44;12.32;;;9.52;;
49320;SDS011;35817;44.498;0.166;2022-11-12T07:19:10;10.65;;;6.95;;
49320;SDS011;35817;44.498;0.166;2022-11-12T07:21:36;12.30;;;8.13;;
49320;SDS011;35817;44.498;0.166;2022-11-12T07:24:02;12.82;;;6.72;;
49320;SDS011;35817;44.498;0.166;2022-11-12T07:26:28;7.60;;;6.65;;
49320;SDS011;35817;44.498;0.166;2022-11-12T07:28:54;14.07;;;7.32;;
49320;SDS011;35817;44.498;0.166;2022-11-12T07:31:20;9.00;;;6.43;;
49320;SDS011;35817;44.498;0.166;2022-11-12T07:33:47;9.40;;;5.25;;
49320;SDS011;35817;44.498;0.166;2022-11-12T07:36:15;13.80;;;7.15;;
49320;SDS011;35817;44.498;0.166;2022-11-12T07:38:43;10.70;;;6.25;;
49320;SDS011;35817;44.498;0.166;2022-11-12T07:41:11;13.23;;;5.97;;
49320;SDS011;35817;44.498;0.166;2022-11-12T07:43:38;11.48;;;6.05;;
49320;SDS011;35817;44.498;0.166;2022-11-12T07:46:06;10.50;;;6.10;;
49320;SDS011;35817;44.498;0.166;2022-11-12T07:48:34;7.43;;;5.97;;
49320;SDS011;35817;44.498;0.166;2022-11-12T07:51:05;16.90;;;7.25;;
49320;SDS011;35817;44.498;0.166;2022-11-12T07:53:35;11.48;;;6.13;;
49320;SDS011;35817;44.498;0.166;2022-11-12T07:56:02;12.57;;;6.75;;
49320;SDS011;35817;44.498;0.166;2022-11-12T07:58:29;9.90;;;6.45;;
49320;SDS011;35817;44.498;0.166;2022-11-12T08:00:57;9.65;;;6.45;;
49320;SDS011;35817;44.498;0.166;2022-11-12T08:03:30;7.72;;;5.53;;
49320;SDS011;35817;44.498;0.166;2022-11-12T08:05:58;6.53;;;4.93;;
49320;SDS011;35817;44.498;0.166;2022-11-12T08:08:24;10.23;;;5.78;;
49320;SDS011;35817;44.498;0.166;2022-11-12T08:10:57;8.05;;;7.18;;
49320;SDS011;35817;44.498;0.166;2022-11-12T08:13:24;7.60;;;5.55;;
49320;SDS011;35817;44.498;0.166;2022-11-12T08:15:49;7.90;;;7.10;;
49320;SDS011;35817;44.498;0.166;2022-11-12T08:18:16;7.75;;;4.00;;
49320;SDS011;35817;44.498;0.166;2022-11-12T08:20:42;8.98;;;4.25;;
49320;SDS011;35817;44.498;0.166;2022-11-12T08:23:08;6.18;;;4.53;;
49320;SDS011;35817;44.498;0.166;2022-11-12T08:25:35;5.03;;;4.15;;
49320;SDS011;35817;44.498;0.166;2022-11-12T08:28:01;8.18;;;5.85;;
49320;SDS011;35817;44.498;0.166;2022-11-12T08:30:27;6.68;;;5.97;;
49320;SDS011;35817;44.498;0.166;2022-11-12T08:32:55;7.68;;;5.30;;
49320;SDS011;35817;44.498;0.166;2022-11-12T08:35:22;6.93;;;4.95;;
49320;SDS011;35817;44.498;0.166;2022-11-12T08:37:48;5.85;;;5.25;;
49320;SDS011;35817;44.498;0.166;2022-11-12T08:40:14;6.68;;;4.53;;
49320;SDS011;35817;44.498;0.166;2022-11-12T08:42:40;8.30;;;6.45;;
49320;SDS011;35817;44.498;0.166;2022-11-12T08:45:06;7.40;;;5.07;;
49320;SDS011;35817;44.498;0.166;2022-11-12T08:47:37;10.60;;;6.70;;
49320;SDS011;35817;44.498;0.166;2022-11-12T08:50:05;10.68;;;5.18;;
49320;SDS011;35817;44.498;0.166;2022-11-12T08:52:32;12.10;;;6.43;;
49320;SDS011;35817;44.498;0.166;2022-11-12T08:54:58;10.68;;;7.57;;
49320;SDS011;35817;44.498;0.166;2022-11-12T08:57:23;9.90;;;7.32;;
49320;SDS011;35817;44.498;0.166;2022-11-12T08:59:49;13.88;;;8.98;;
49320;SDS011;35817;44.498;0.166;2022-11-12T09:02:15;15.73;;;9.48;;
49320;SDS011;35817;44.498;0.166;2022-11-12T09:04:41;15.93;;;8.43;;
49320;SDS011;35817;44.498;0.166;2022-11-12T09:07:08;10.15;;;7.93;;
49320;SDS011;35817;44.498;0.166;2022-11-12T09:09:34;9.07;;;4.93;;
49320;SDS011;35817;44.498;0.166;2022-11-12T09:11:59;9.02;;;6.85;;
49320;SDS011;35817;44.498;0.166;2022-11-12T09:14:25;6.53;;;5.80;;
49320;SDS011;35817;44.498;0.166;2022-11-12T09:16:51;11.98;;;6.05;;
49320;SDS011;35817;44.498;0.166;2022-11-12T09:19:17;6.80;;;4.72;;
49320;SDS011;35817;44.498;0.166;2022-11-12T09:21:45;7.60;;;4.38;;
49320;SDS011;35817;44.498;0.166;2022-11-12T09:24:13;9.27;;;5.40;;
49320;SDS011;35817;44.498;0.166;2022-11-12T09:26:39;8.25;;;4.93;;
49320;SDS011;35817;44.498;0.166;2022-11-12T09:29:05;5.57;;;4.28;;
49320;SDS011;35817;44.498;0.166;2022-11-12T09:31:31;8.23;;;4.32;;
49320;SDS011;35817;44.498;0.166;2022-11-12T09:33:59;4.97;;;3.28;;
49320;SDS011;35817;44.498;0.166;2022-11-12T09:36:29;13.47;;;3.70;;
49320;SDS011;35817;44.498;0.166;2022-11-12T09:39:02;10.38;;;3.72;;
49320;SDS011;35817;44.498;0.166;2022-11-12T09:44:11;6.53;;;3.92;;
49320;SDS011;35817;44.498;0.166;2022-11-12T09:46:52;4.35;;;2.90;;
49320;SDS011;35817;44.498;0.166;2022-11-12T09:52:04;6.75;;;2.55;;
49320;SDS011;35817;44.498;0.166;2022-11-12T09:54:37;4.22;;;3.67;;
49320;SDS011;35817;44.498;0.166;2022-11-12T09:57:03;8.40;;;4.15;;
49320;SDS011;35817;44.498;0.166;2022-11-12T09:59:34;7.90;;;3.20;;
49320;SDS011;35817;44.498;0.166;2022-11-12T10:05:02;8.88;;;3.70;;
49320;SDS011;35817;44.498;0.166;2022-11-12T10:13:12;6.13;;;2.97;;
49320;SDS011;35817;44.498;0.166;2022-11-12T10:24:19;3.35;;;2.20;;
49320;SDS011;35817;44.498;0.166;2022-11-12T10:37:19;6.88;;;2.20;;
49320;SDS011;35817;44.498;0.166;2022-11-12T10:39:52;3.55;;;1.52;;
49320;SDS011;35817;44.498;0.166;2022-11-12T10:42:20;4.45;;;1.95;;
49320;SDS011;35817;44.498;0.166;2022-11-12T10:44:46;7.35;;;1.90;;
49320;SDS011;35817;44.498;0.166;2022-11-12T11:13:33;3.58;;;2.28;;
49320;SDS011;35817;44.498;0.166;2022-11-12T11:16:03;6.07;;;1.70;;
49320;SDS011;35817;44.498;0.166;2022-11-12T11:18:32;5.50;;;1.67;;
49320;SDS011;35817;44.498;0.166;2022-11-12T11:23:55;5.40;;;1.33;;
49320;SDS011;35817;44.498;0.166;2022-11-12T11:26:31;5.75;;;2.45;;
49320;SDS011;35817;44.498;0.166;2022-11-12T11:34:41;6.88;;;2.00;;
49320;SDS011;35817;44.498;0.166;2022-11-12T11:37:23;4.38;;;2.75;;
49320;SDS011;35817;44.498;0.166;2022-11-12T11:40:02;5.07;;;2.25;;
49320;SDS011;35817;44.498;0.166;2022-11-12T11:45:31;7.57;;;2.60;;
49320;SDS011;35817;44.498;0.166;2022-11-12T11:48:28;6.93;;;2.85;;
49320;SDS011;35817;44.498;0.166;2022-11-12T11:51:17;5.07;;;2.25;;
49320;SDS011;35817;44.498;0.166;2022-11-12T12:53:35;7.47;;;2.10;;
49320;SDS011;35817;44.498;0.166;2022-11-12T15:22:17;8.35;;;2.33;;
49320;SDS011;35817;44.498;0.166;2022-11-12T15:24:45;4.45;;;1.80;;
49320;SDS011;35817;44.498;0.166;2022-11-12T15:30:13;7.47;;;2.60;;
49320;SDS011;35817;44.498;0.166;2022-11-12T15:32:41;6.40;;;2.38;;
49320;SDS011;35817;44.498;0.166;2022-11-12T15:37:53;3.75;;;2.50;;
49320;SDS011;35817;44.498;0.166;2022-11-12T15:40:20;4.80;;;2.38;;
49320;SDS011;35817;44.498;0.166;2022-11-12T15:42:47;7.18;;;2.40;;
49320;SDS011;35817;44.498;0.166;2022-11-12T15:45:14;6.20;;;2.70;;
49320;SDS011;35817;44.498;0.166;2022-11-12T15:47:44;4.60;;;2.10;;
49320;SDS011;35817;44.498;0.166;2022-11-12T15:52:42;4.28;;;2.33;;
49320;SDS011;35817;44.498;0.166;2022-11-12T15:55:08;4.97;;;2.28;;
49320;SDS011;35817;44.498;0.166;2022-11-12T15:57:38;5.22;;;2.72;;
49320;SDS011;35817;44.498;0.166;2022-11-12T16:00:15;5.22;;;2.97;;
49320;SDS011;35817;44.498;0.166;2022-11-12T16:02:57;10.30;;;4.72;;
49320;SDS011;35817;44.498;0.166;2022-11-12T16:05:31;14.05;;;8.77;;
49320;SDS011;35817;44.498;0.166;2022-11-12T16:07:57;20.75;;;13.30;;
49320;SDS011;35817;44.498;0.166;2022-11-12T16:10:23;40.50;;;22.90;;
49320;SDS011;35817;44.498;0.166;2022-11-12T16:12:51;32.47;;;18.60;;
49320;SDS011;35817;44.498;0.166;2022-11-12T17:14:07;12.90;;;10.45;;
49320;SDS011;35817;44.498;0.166;2022-11-12T17:16:33;12.80;;;10.32;;
49320;SDS011;35817;44.498;0.166;2022-11-12T17:18:59;11.25;;;8.10;;
49320;SDS011;35817;44.498;0.166;2022-11-12T17:21:29;10.23;;;7.18;;
49320;SDS011;35817;44.498;0.166;2022-11-12T17:23:55;8.35;;;6.57;;
49320;SDS011;35817;44.498;0.166;2022-11-12T17:26:22;7.85;;;5.90;;
49320;SDS011;35817;44.498;0.166;2022-11-12T17:28:48;7.38;;;5.85;;
49320;SDS011;35817;44.498;0.166;2022-11-12T17:31:18;10.10;;;5.47;;
49320;SDS011;35817;44.498;0.166;2022-11-12T17:33:47;8.35;;;6.13;;
49320;SDS011;35817;44.498;0.166;2022-11-12T17:36:15;11.05;;;9.88;;
49320;SDS011;35817;44.498;0.166;2022-11-12T17:38:42;17.08;;;14.60;;
49320;SDS011;35817;44.498;0.166;2022-11-12T17:41:09;17.83;;;12.77;;
49320;SDS011;35817;44.498;0.166;2022-11-12T17:43:35;13.38;;;11.93;;
49320;SDS011;35817;44.498;0.166;2022-11-12T17:46:02;20.17;;;15.40;;
49320;SDS011;35817;44.498;0.166;2022-11-12T17:48:30;18.55;;;15.15;;
49320;SDS011;35817;44.498;0.166;2022-11-12T17:51:03;22.45;;;17.75;;
49320;SDS011;35817;44.498;0.166;2022-11-12T17:53:35;22.90;;;18.52;;
49320;SDS011;35817;44.498;0.166;2022-11-12T17:56:04;22.48;;;19.42;;
49320;SDS011;35817;44.498;0.166;2022-11-12T17:58:31;21.17;;;16.50;;
49320;SDS011;35817;44.498;0.166;2022-11-12T18:01:10;22.55;;;17.58;;
49320;SDS011;35817;44.498;0.166;2022-11-12T18:03:42;24.08;;;17.25;;
49320;SDS011;35817;44.498;0.166;2022-11-12T18:06:12;22.88;;;15.30;;
49320;SDS011;35817;44.498;0.166;2022-11-12T18:08:39;20.08;;;14.05;;
49320;SDS011;35817;44.498;0.166;2022-11-12T18:11:06;18.02;;;12.50;;
49320;SDS011;35817;44.498;0.166;2022-11-12T18:13:33;18.95;;;11.70;;
49320;SDS011;35817;44.498;0.166;2022-11-12T18:15:59;15.68;;;11.32;;
49320;SDS011;35817;44.498;0.166;2022-11-12T18:18:26;15.68;;;11.60;;
49320;SDS011;35817;44.498;0.166;2022-11-12T18:20:53;18.50;;;9.63;;
49320;SDS011;35817;44.498;0.166;2022-11-12T18:23:19;12.35;;;9.02;;
49320;SDS011;35817;44.498;0.166;2022-11-12T18:25:45;17.63;;;10.80;;
49320;SDS011;35817;44.498;0.166;2022-11-12T18:28:11;18.90;;;10.88;;
49320;SDS011;35817;44.498;0.166;2022-11-12T18:30:37;16.23;;;11.38;;
49320;SDS011;35817;44.498;0.166;2022-11-12T18:33:03;13.57;;;9.80;;
49320;SDS011;35817;44.498;0.166;2022-11-12T18:35:29;13.13;;;9.73;;
49320;SDS011;35817;44.498;0.166;2022-11-12T18:37:55;21.90;;;11.73;;
49320;SDS011;35817;44.498;0.166;2022-11-12T18:40:21;19.77;;;13.05;;
49320;SDS011;35817;44.498;0.166;2022-11-12T19:05:01;17.83;;;11.50;;
49320;SDS011;35817;44.498;0.166;2022-11-12T19:07:26;16.00;;;11.77;;
49320;SDS011;35817;44.498;0.166;2022-11-12T19:09:52;16.17;;;11.55;;
49320;SDS011;35817;44.498;0.166;2022-11-12T19:12:18;17.27;;;10.70;;
49320;SDS011;35817;44.498;0.166;2022-11-12T19:14:44;21.00;;;11.60;;
49320;SDS011;35817;44.498;0.166;2022-11-12T19:17:10;13.02;;;9.60;;
49320;SDS011;35817;44.498;0.166;2022-11-12T19:19:36;14.10;;;10.55;;
49320;SDS011;35817;44.498;0.166;2022-11-12T19:22:02;14.18;;;9.82;;
49320;SDS011;35817;44.498;0.166;2022-11-12T19:24:28;17.27;;;11.10;;
49320;SDS011;35817;44.498;0.166;2022-11-12T19:26:54;14.18;;;10.60;;
49320;SDS011;35817;44.498;0.166;2022-11-12T19:29:23;11.77;;;10.13;;
49320;SDS011;35817;44.498;0.166;2022-11-12T19:31:49;13.20;;;10.32;;
49320;SDS011;35817;44.498;0.166;2022-11-12T19:34:15;11.95;;;9.00;;
49320;SDS011;35817;44.498;0.166;2022-11-12T19:36:40;15.25;;;10.38;;
49320;SDS011;35817;44.498;0.166;2022-11-12T19:39:06;19.98;;;11.60;;
49320;SDS011;35817;44.498;0.166;2022-11-12T19:41:32;16.33;;;9.57;;
49320;SDS011;35817;44.498;0.166;2022-11-12T19:43:58;14.80;;;10.30;;
49320;SDS011;35817;44.498;0.166;2022-11-12T19:46:24;23.73;;;15.90;;
49320;SDS011;35817;44.498;0.166;2022-11-12T19:48:50;16.05;;;10.65;;
49320;SDS011;35817;44.498;0.166;2022-11-12T19:51:16;17.67;;;10.80;;
49320;SDS011;35817;44.498;0.166;2022-11-12T19:53:42;14.88;;;10.70;;
49320;SDS011;35817;44.498;0.166;2022-11-12T19:56:11;15.77;;;9.45;;
49320;SDS011;35817;44.498;0.166;2022-11-12T20:01:11;14.57;;;10.00;;
49320;SDS011;35817;44.498;0.166;2022-11-12T20:03:39;14.80;;;11.57;;
49320;SDS011;35817;44.498;0.166;2022-11-12T20:06:06;18.10;;;11.20;;
49320;SDS011;35817;44.498;0.166;2022-11-12T20:08:33;17.17;;;10.63;;
49320;SDS011;35817;44.498;0.166;2022-11-12T20:10:59;19.20;;;10.95;;
49320;SDS011;35817;44.498;0.166;2022-11-12T20:13:26;18.77;;;12.30;;
49320;SDS011;35817;44.498;0.166;2022-11-12T20:15:52;22.88;;;13.27;;
49320;SDS011;35817;44.498;0.166;2022-11-12T20:18:19;19.70;;;13.05;;
49320;SDS011;35817;44.498;0.166;2022-11-12T20:20:48;24.33;;;13.73;;
49320;SDS011;35817;44.498;0.166;2022-11-12T20:23:18;20.67;;;14.13;;
49320;SDS011;35817;44.498;0.166;2022-11-12T20:25:44;19.10;;;13.93;;
49320;SDS011;35817;44.498;0.166;2022-11-12T20:28:10;17.85;;;12.40;;
49320;SDS011;35817;44.498;0.166;2022-11-12T20:30:37;18.27;;;12.48;;
49320;SDS011;35817;44.498;0.166;2022-11-12T20:33:03;17.40;;;13.40;;
49320;SDS011;35817;44.498;0.166;2022-11-12T20:35:29;30.52;;;16.25;;
49320;SDS011;35817;44.498;0.166;2022-11-12T20:37:57;20.20;;;14.35;;
49320;SDS011;35817;44.498;0.166;2022-11-12T20:40:24;28.27;;;15.02;;
49320;SDS011;35817;44.498;0.166;2022-11-12T20:42:49;16.85;;;13.25;;
49320;SDS011;35817;44.498;0.166;2022-11-12T20:45:16;20.05;;;13.52;;
49320;SDS011;35817;44.498;0.166;2022-11-12T20:47:42;14.98;;;11.85;;
49320;SDS011;35817;44.498;0.166;2022-11-12T20:50:08;22.27;;;12.65;;
49320;SDS011;35817;44.498;0.166;2022-11-12T20:52:34;17.63;;;12.93;;
49320;SDS011;35817;44.498;0.166;2022-11-12T20:54:59;15.43;;;12.15;;
49320;SDS011;35817;44.498;0.166;2022-11-12T20:57:25;18.42;;;13.82;;
49320;SDS011;35817;44.498;0.166;2022-11-12T20:59:51;20.00;;;13.65;;